createdAt,value
2022-10-31T00:00:50.915Z,100176.91
2022-10-31T00:03:19.454Z,100179.06
2022-10-31T00:05:50.652Z,100180.56
2022-10-31T00:08:19.593Z,100185.34
2022-10-31T00:10:48.921Z,100182.03
2022-10-31T00:13:17.382Z,100195.78
2022-10-31T00:15:45.267Z,100196.28
2022-10-31T00:18:13.687Z,100188.16
2022-10-31T00:20:41.657Z,100187.03
2022-10-31T00:23:10.301Z,100188.69
2022-10-31T00:25:40.853Z,100183.22
2022-10-31T00:28:13.773Z,100187.38
2022-10-31T00:30:41.721Z,100191.19
2022-10-31T00:33:09.466Z,100195.97
2022-10-31T00:35:37.251Z,100202.78
2022-10-31T00:38:07.353Z,100194.16
2022-10-31T00:40:38.403Z,100198.94
2022-10-31T00:43:07.360Z,100196.81
2022-10-31T00:45:40.333Z,100198.31
2022-10-31T00:48:09.330Z,100197.47
2022-10-31T00:50:46.956Z,100192.47
2022-10-31T00:53:15.676Z,100186.84
2022-10-31T00:55:44.836Z,100191.00
2022-10-31T01:00:43.137Z,100195.13
2022-10-31T01:03:12.789Z,100193.63
2022-10-31T01:05:40.779Z,100196.63
2022-10-31T01:08:09.064Z,100201.44
2022-10-31T01:10:37.089Z,100198.59
2022-10-31T01:13:04.866Z,100203.75
2022-10-31T01:15:32.759Z,100202.44
2022-10-31T01:18:02.689Z,100204.09
2022-10-31T01:20:30.761Z,100192.31
2022-10-31T01:22:59.382Z,100198.13
2022-10-31T01:25:27.083Z,100202.09
2022-10-31T01:27:55.168Z,100185.50
2022-10-31T01:30:22.997Z,100188.50
2022-10-31T01:32:51.848Z,100189.16
2022-10-31T01:35:24.399Z,100188.50
2022-10-31T01:37:52.280Z,100189.00
2022-10-31T01:40:20.200Z,100183.69
2022-10-31T01:42:48.169Z,100187.84
2022-10-31T01:45:42.154Z,100182.53
2022-10-31T01:48:15.862Z,100184.34
2022-10-31T01:50:48.340Z,100183.38
2022-10-31T01:53:19.869Z,100181.88
2022-10-31T01:55:49.895Z,100187.00
2022-10-31T01:58:24.174Z,100188.84
2022-10-31T02:00:55.933Z,100187.84
2022-10-31T02:03:24.706Z,100187.19
2022-10-31T02:05:56.924Z,100183.19
2022-10-31T02:08:29.098Z,100183.72
2022-10-31T02:10:59.059Z,100193.47
2022-10-31T02:13:28.242Z,100191.81
2022-10-31T02:15:57.935Z,100186.84
2022-10-31T02:18:29.196Z,100184.88
2022-10-31T02:21:09.361Z,100189.16
2022-10-31T02:24:11.804Z,100189.81
2022-10-31T02:26:51.494Z,100194.16
2022-10-31T02:29:38.240Z,100183.03
2022-10-31T02:32:14.721Z,100182.22
2022-10-31T02:34:50.519Z,100196.16
2022-10-31T02:37:28.117Z,100179.22
2022-10-31T02:40:03.049Z,100187.69
2022-10-31T02:42:37.688Z,100188.69
2022-10-31T02:45:12.437Z,100196.13
2022-10-31T02:47:45.768Z,100189.03
2022-10-31T02:50:21.059Z,100189.50
2022-10-31T02:52:52.819Z,100180.41
2022-10-31T02:55:46.658Z,100187.16
2022-10-31T03:01:12.904Z,100189.00
2022-10-31T03:03:55.416Z,100179.84
2022-10-31T03:06:33.180Z,100182.84
2022-10-31T03:09:07.702Z,100178.91
2022-10-31T03:11:45.623Z,100179.56
2022-10-31T03:14:19.096Z,100184.53
2022-10-31T03:16:49.636Z,100185.50
2022-10-31T03:19:22.419Z,100188.34
2022-10-31T03:21:55.827Z,100182.72
2022-10-31T03:24:27.171Z,100180.53
2022-10-31T03:26:59.820Z,100184.53
2022-10-31T03:29:31.500Z,100182.56
2022-10-31T03:32:02.898Z,100188.84
2022-10-31T03:34:33.945Z,100191.31
2022-10-31T03:37:05.771Z,100185.38
2022-10-31T03:39:35.213Z,100182.53
2022-10-31T03:42:11.652Z,100185.03
2022-10-31T03:44:43.444Z,100178.41
2022-10-31T03:47:11.581Z,100186.81
2022-10-31T03:49:41.111Z,100191.63
2022-10-31T03:52:18.798Z,100186.63
2022-10-31T03:54:48.680Z,100193.38
2022-10-31T03:57:22.323Z,100191.41
2022-10-31T03:59:58.398Z,100185.13
2022-10-31T04:02:32.261Z,100183.94
2022-10-31T04:05:02.620Z,100190.44
2022-10-31T04:07:35.556Z,100188.28
2022-10-31T04:10:08.026Z,100195.03
2022-10-31T04:12:37.495Z,100191.03
2022-10-31T04:15:08.729Z,100196.84
2022-10-31T04:17:42.406Z,100196.84
2022-10-31T04:20:12.820Z,100201.13
2022-10-31T04:22:42.512Z,100197.78
2022-10-31T04:25:15.764Z,100193.31
2022-10-31T04:27:44.518Z,100192.13
2022-10-31T04:30:14.065Z,100189.28
2022-10-31T04:32:41.950Z,100195.94
2022-10-31T04:35:11.323Z,100198.19
2022-10-31T04:37:39.165Z,100193.25
2022-10-31T04:40:07.831Z,100198.69
2022-10-31T04:42:35.570Z,100195.69
2022-10-31T04:45:03.425Z,100189.44
2022-10-31T04:47:33.333Z,100199.19
2022-10-31T04:50:02.180Z,100197.22
2022-10-31T04:52:31.407Z,100187.63
2022-10-31T04:54:59.343Z,100176.53
2022-10-31T04:57:27.639Z,100187.47
2022-10-31T04:59:55.434Z,100187.97
2022-10-31T05:02:23.293Z,100191.41
2022-10-31T05:04:51.109Z,100183.94
2022-10-31T05:07:19.263Z,100178.31
2022-10-31T05:09:48.348Z,100171.53
2022-10-31T05:12:16.260Z,100166.25
2022-10-31T05:14:46.173Z,100172.03
2022-10-31T05:17:16.531Z,100170.16
2022-10-31T05:19:44.226Z,100170.16
2022-10-31T05:22:12.169Z,100170.00
2022-10-31T05:24:40.156Z,100170.97
2022-10-31T05:27:09.236Z,100164.72
2022-10-31T05:29:37.238Z,100161.44
2022-10-31T05:32:09.196Z,100161.44
2022-10-31T05:34:37.025Z,100160.06
2022-10-31T05:37:05.283Z,100150.00
2022-10-31T05:39:33.366Z,100142.56
2022-10-31T05:42:01.231Z,100147.84
2022-10-31T05:44:30.512Z,100152.47
2022-10-31T05:46:58.449Z,100152.31
2022-10-31T05:49:26.349Z,100147.19
2022-10-31T05:51:54.261Z,100150.84
2022-10-31T05:54:22.605Z,100147.03
2022-10-31T05:56:50.379Z,100152.31
2022-10-31T05:59:18.234Z,100145.69
2022-10-31T06:01:47.655Z,100152.28
2022-10-31T06:04:15.408Z,100148.84
2022-10-31T06:06:43.183Z,100138.75
2022-10-31T06:09:10.890Z,100135.75
2022-10-31T06:11:38.735Z,100137.97
2022-10-31T06:14:06.713Z,100140.59
2022-10-31T06:16:34.975Z,100130.84
2022-10-31T06:19:04.630Z,100139.63
2022-10-31T06:21:32.364Z,100140.41
2022-10-31T06:24:00.511Z,100139.13
2022-10-31T06:26:28.322Z,100142.81
2022-10-31T06:28:59.872Z,100143.97
2022-10-31T06:31:30.635Z,100150.44
2022-10-31T06:33:58.993Z,100148.59
2022-10-31T06:36:31.130Z,100155.22
2022-10-31T06:38:59.068Z,100150.94
2022-10-31T06:41:28.165Z,100162.81
2022-10-31T06:43:56.007Z,100162.69
2022-10-31T06:46:26.501Z,100163.72
2022-10-31T06:48:56.161Z,100171.81
2022-10-31T06:51:24.546Z,100176.81
2022-10-31T06:53:53.915Z,100170.91
2022-10-31T06:56:21.843Z,100172.56
2022-10-31T06:58:52.901Z,100173.50
2022-10-31T07:01:21.036Z,100173.44
2022-10-31T07:03:49.129Z,100176.25
2022-10-31T07:06:17.096Z,100168.13
2022-10-31T07:08:45.056Z,100175.72
2022-10-31T07:11:14.307Z,100170.78
2022-10-31T07:13:42.332Z,100172.59
2022-10-31T07:16:13.132Z,100172.56
2022-10-31T07:18:41.638Z,100177.38
2022-10-31T07:21:09.772Z,100168.56
2022-10-31T07:23:37.814Z,100169.88
2022-10-31T07:26:05.966Z,100170.47
2022-10-31T07:28:35.679Z,100163.13
2022-10-31T07:31:04.329Z,100169.91
2022-10-31T07:33:32.460Z,100170.09
2022-10-31T07:36:00.249Z,100171.78
2022-10-31T07:38:28.221Z,100171.00
2022-10-31T07:40:56.173Z,100170.94
2022-10-31T07:43:24.006Z,100169.44
2022-10-31T07:45:54.006Z,100163.38
2022-10-31T07:48:22.274Z,100166.03
2022-10-31T07:50:50.017Z,100169.06
2022-10-31T07:53:17.929Z,100170.69
2022-10-31T07:55:46.059Z,100162.38
2022-10-31T07:58:15.731Z,100161.41
2022-10-31T08:00:45.584Z,100161.06
2022-10-31T08:03:16.423Z,100165.25
2022-10-31T08:05:46.806Z,100163.25
2022-10-31T08:08:15.864Z,100163.25
2022-10-31T08:10:44.186Z,100163.44
2022-10-31T08:13:14.320Z,100163.28
2022-10-31T08:15:42.972Z,100163.28
2022-10-31T08:18:16.064Z,100154.88
2022-10-31T08:20:54.537Z,100160.59
2022-10-31T08:23:33.209Z,100160.91
2022-10-31T08:26:01.311Z,100158.00
2022-10-31T08:28:29.080Z,100153.13
2022-10-31T08:30:56.940Z,100160.97
2022-10-31T08:33:26.359Z,100155.47
2022-10-31T08:35:54.390Z,100157.13
2022-10-31T08:38:22.669Z,100159.91
2022-10-31T08:40:51.387Z,100153.47
2022-10-31T08:43:20.179Z,100154.59
2022-10-31T08:45:51.143Z,100155.56
2022-10-31T08:48:19.937Z,100156.63
2022-10-31T08:50:49.624Z,100150.59
2022-10-31T08:53:19.248Z,100144.75
2022-10-31T08:55:48.548Z,100142.88
2022-10-31T08:58:17.864Z,100140.09
2022-10-31T09:00:46.503Z,100151.44
2022-10-31T09:03:16.020Z,100149.53
2022-10-31T09:05:45.173Z,100142.19
2022-10-31T09:08:16.945Z,100146.72
2022-10-31T09:10:45.807Z,100150.09
2022-10-31T09:13:16.210Z,100142.94
2022-10-31T09:15:46.456Z,100136.88
2022-10-31T09:18:15.376Z,100138.84
2022-10-31T09:20:44.871Z,100139.16
2022-10-31T09:23:17.279Z,100135.63
2022-10-31T09:25:50.449Z,100132.50
2022-10-31T09:28:21.921Z,100131.47
2022-10-31T09:30:51.668Z,100133.75
2022-10-31T09:33:20.429Z,100126.56
2022-10-31T09:35:48.710Z,100126.38
2022-10-31T09:38:20.255Z,100126.16
2022-10-31T09:40:51.199Z,100116.50
2022-10-31T09:43:27.721Z,100111.13
2022-10-31T09:46:06.610Z,100114.44
2022-10-31T09:48:44.461Z,100106.59
2022-10-31T09:51:15.716Z,100114.22
2022-10-31T09:53:50.179Z,100109.91
2022-10-31T09:56:20.605Z,100113.53
2022-10-31T09:58:54.932Z,100115.81
2022-10-31T10:01:46.240Z,100106.06
2022-10-31T10:04:40.380Z,100107.66
2022-10-31T10:07:18.820Z,100102.25
2022-10-31T10:09:48.666Z,100101.22
2022-10-31T10:12:24.858Z,100096.06
2022-10-31T10:15:11.055Z,100094.81
2022-10-31T10:17:47.488Z,100096.06
2022-10-31T10:20:24.321Z,100093.59
2022-10-31T10:23:04.022Z,100091.53
2022-10-31T10:25:41.007Z,100089.69
2022-10-31T10:28:22.221Z,100093.88
2022-10-31T10:30:55.686Z,100089.03
2022-10-31T10:33:31.505Z,100089.81
2022-10-31T10:36:02.409Z,100089.88
2022-10-31T10:38:38.093Z,100087.50
2022-10-31T10:41:12.149Z,100072.78
2022-10-31T10:43:40.126Z,100077.78
2022-10-31T10:46:41.630Z,100066.06
2022-10-31T10:49:18.705Z,100067.22
2022-10-31T10:52:02.195Z,100069.06
2022-10-31T10:54:58.232Z,100069.84
2022-10-31T10:58:02.744Z,100055.63
2022-10-31T11:00:36.842Z,100062.09
2022-10-31T11:03:06.058Z,100053.09
2022-10-31T11:05:39.307Z,100050.28
2022-10-31T11:08:08.893Z,100045.84
2022-10-31T11:10:37.400Z,100044.84
2022-10-31T11:13:22.647Z,100042.75
2022-10-31T11:15:58.450Z,100037.03
2022-10-31T11:18:32.243Z,100030.75
2022-10-31T11:21:03.733Z,100035.25
2022-10-31T11:23:32.153Z,100037.44
2022-10-31T11:26:02.188Z,100023.03
2022-10-31T11:28:33.284Z,100012.19
2022-10-31T11:31:03.338Z,100012.84
2022-10-31T11:33:34.728Z,100007.06
2022-10-31T11:36:04.465Z,100007.31
2022-10-31T11:38:37.445Z,99999.94
2022-10-31T11:41:14.441Z,100006.00
2022-10-31T11:43:52.413Z,100002.47
2022-10-31T11:46:30.215Z,100003.59
2022-10-31T11:48:58.525Z,99997.59
2022-10-31T11:51:29.054Z,99983.94
2022-10-31T11:54:02.666Z,99985.16
2022-10-31T11:56:41.116Z,99980.31
2022-10-31T11:59:20.874Z,99981.44
2022-10-31T12:01:51.048Z,99978.03
2022-10-31T12:04:18.893Z,99976.41
2022-10-31T12:06:48.211Z,99969.38
2022-10-31T12:09:22.427Z,99967.47
2022-10-31T12:12:15.071Z,99960.56
2022-10-31T12:14:55.420Z,99957.63
2022-10-31T12:17:29.262Z,99964.34
2022-10-31T12:20:06.242Z,99961.47
2022-10-31T12:22:43.591Z,99973.97
2022-10-31T12:25:27.130Z,99969.09
2022-10-31T12:28:22.965Z,99964.09
2022-10-31T12:31:05.338Z,99961.56
2022-10-31T12:33:45.526Z,99933.94
2022-10-31T12:36:28.339Z,99927.91
2022-10-31T12:39:08.619Z,99914.88
2022-10-31T12:41:47.684Z,99917.06
2022-10-31T12:44:42.716Z,99912.19
2022-10-31T12:47:37.330Z,99907.19
2022-10-31T12:50:21.141Z,99910.00
2022-10-31T12:53:01.816Z,99901.81
2022-10-31T12:55:43.536Z,99903.72
2022-10-31T12:58:16.354Z,99892.34
2022-10-31T13:00:48.535Z,99879.28
2022-10-31T13:03:28.634Z,99865.56
2022-10-31T13:06:00.809Z,99876.59
2022-10-31T13:08:33.193Z,99862.81
2022-10-31T13:11:08.849Z,99863.41
2022-10-31T13:13:40.150Z,99856.69
2022-10-31T13:16:14.689Z,99859.59
2022-10-31T13:18:48.816Z,99860.06
2022-10-31T13:21:23.107Z,99852.44
2022-10-31T13:23:52.904Z,99857.38
2022-10-31T13:26:37.607Z,99859.56
2022-10-31T13:29:13.618Z,99880.31
2022-10-31T13:31:42.480Z,99872.78
2022-10-31T13:34:22.271Z,99863.34
2022-10-31T13:36:58.109Z,99861.34
2022-10-31T13:39:35.247Z,99859.41
2022-10-31T13:42:11.205Z,99863.88
2022-10-31T13:44:39.418Z,99839.22
2022-10-31T13:47:28.855Z,99834.75
2022-10-31T13:50:20.572Z,99842.53
2022-10-31T13:52:48.239Z,99844.63
2022-10-31T13:55:37.113Z,99838.53
2022-10-31T13:58:06.529Z,99836.31
2022-10-31T14:00:36.024Z,99836.72
2022-10-31T14:03:03.912Z,99827.84
2022-10-31T14:05:35.340Z,99824.88
2022-10-31T14:08:06.112Z,99826.44
2022-10-31T14:10:37.308Z,99840.63
2022-10-31T14:13:07.701Z,99831.72
2022-10-31T14:15:37.162Z,99828.19
2022-10-31T14:18:07.369Z,99830.19
2022-10-31T14:20:41.466Z,99827.84
2022-10-31T14:23:15.046Z,99813.41
2022-10-31T14:25:42.721Z,99811.19
2022-10-31T14:28:33.135Z,99809.09
2022-10-31T14:31:01.930Z,99817.03
2022-10-31T14:33:31.691Z,99809.75
2022-10-31T14:36:05.319Z,99827.38
2022-10-31T14:38:49.325Z,99824.03
2022-10-31T14:41:53.098Z,99810.81
2022-10-31T14:44:53.368Z,99805.91
2022-10-31T14:47:31.909Z,99800.63
2022-10-31T14:50:20.521Z,99790.47
2022-10-31T14:52:52.318Z,99787.44
2022-10-31T14:55:21.489Z,99793.13
2022-10-31T14:57:54.585Z,99782.78
2022-10-31T15:00:24.771Z,99776.88
2022-10-31T15:03:05.000Z,99788.69
2022-10-31T15:05:34.945Z,99795.06
2022-10-31T15:08:04.013Z,99805.41
2022-10-31T15:10:36.111Z,99805.63
2022-10-31T15:13:19.626Z,99787.34
2022-10-31T15:15:52.029Z,99768.47
2022-10-31T15:18:23.084Z,99773.75
2022-10-31T15:20:53.284Z,99769.75
2022-10-31T15:23:26.650Z,99762.91
2022-10-31T15:26:00.875Z,99733.56
2022-10-31T15:28:29.478Z,99706.63
2022-10-31T15:30:59.178Z,99700.34
2022-10-31T15:33:33.659Z,99700.09
2022-10-31T15:36:05.881Z,99731.50
2022-10-31T15:38:34.980Z,99744.50
2022-10-31T15:41:06.853Z,99714.88
2022-10-31T15:43:37.759Z,99675.19
2022-10-31T15:46:11.037Z,99656.31
2022-10-31T15:48:39.358Z,99661.25
2022-10-31T15:51:07.217Z,99676.09
2022-10-31T15:53:43.995Z,99694.88
2022-10-31T15:56:20.549Z,99693.63
2022-10-31T15:58:50.331Z,99695.50
2022-10-31T16:01:24.378Z,99685.09
2022-10-31T16:04:07.186Z,99701.66
2022-10-31T16:06:37.106Z,99701.09
2022-10-31T16:09:23.259Z,99713.13
2022-10-31T16:11:51.408Z,99706.41
2022-10-31T16:14:25.782Z,99707.91
2022-10-31T16:16:55.822Z,99692.34
2022-10-31T16:19:26.320Z,99678.66
2022-10-31T16:21:56.899Z,99684.03
2022-10-31T16:24:30.220Z,99708.47
2022-10-31T16:27:05.212Z,99708.16
2022-10-31T16:29:36.668Z,99718.22
2022-10-31T16:32:04.920Z,99723.56
2022-10-31T16:34:32.925Z,99737.56
2022-10-31T16:37:00.449Z,99726.88
2022-10-31T16:39:29.335Z,99714.94
2022-10-31T16:41:58.353Z,99695.47
2022-10-31T16:44:28.391Z,99678.63
2022-10-31T16:47:11.393Z,99657.22
2022-10-31T16:49:39.034Z,99668.47
2022-10-31T16:52:06.589Z,99688.44
2022-10-31T16:54:36.112Z,99693.38
2022-10-31T16:57:05.979Z,99678.41
2022-10-31T16:59:34.619Z,99694.00
2022-10-31T17:02:03.273Z,99684.53
2022-10-31T17:04:30.992Z,99677.97
2022-10-31T17:06:58.590Z,99668.69
2022-10-31T17:09:26.302Z,99678.72
2022-10-31T17:11:55.567Z,99678.53
2022-10-31T17:14:23.377Z,99678.03
2022-10-31T17:16:51.071Z,99688.50
2022-10-31T17:19:18.704Z,99677.59
2022-10-31T17:21:46.269Z,99694.41
2022-10-31T17:24:15.465Z,99690.28
2022-10-31T17:26:44.731Z,99681.47
2022-10-31T17:29:13.736Z,99682.44
2022-10-31T17:31:41.722Z,99697.25
2022-10-31T17:34:10.091Z,99691.47
2022-10-31T17:36:38.275Z,99700.78
2022-10-31T17:39:09.599Z,99699.78
2022-10-31T17:41:37.154Z,99705.19
2022-10-31T17:44:04.994Z,99695.31
2022-10-31T17:46:33.993Z,99705.34
2022-10-31T17:49:01.706Z,99704.50
2022-10-31T17:51:29.256Z,99698.31
2022-10-31T17:53:56.793Z,99696.16
2022-10-31T17:56:24.368Z,99694.06
2022-10-31T17:58:51.983Z,99704.13
2022-10-31T18:01:20.457Z,99707.28
2022-10-31T18:03:49.476Z,99712.13
2022-10-31T18:06:17.347Z,99717.97
2022-10-31T18:08:45.144Z,99713.47
2022-10-31T18:11:15.024Z,99708.56
2022-10-31T18:13:42.913Z,99718.66
2022-10-31T18:16:11.558Z,99716.19
2022-10-31T18:18:39.544Z,99712.81
2022-10-31T18:21:08.656Z,99705.50
2022-10-31T18:23:36.291Z,99707.72
2022-10-31T18:26:04.253Z,99705.19
2022-10-31T18:28:31.852Z,99693.16
2022-10-31T18:31:00.343Z,99693.53
2022-10-31T18:33:28.549Z,99706.19
2022-10-31T18:35:56.407Z,99709.63
2022-10-31T18:38:25.708Z,99713.91
2022-10-31T18:40:53.439Z,99719.63
2022-10-31T18:43:21.015Z,99713.66
2022-10-31T18:45:52.342Z,99712.66
2022-10-31T18:48:22.755Z,99703.25
2022-10-31T18:50:50.341Z,99709.34
2022-10-31T18:53:17.883Z,99714.25
2022-10-31T18:55:49.104Z,99710.75
2022-10-31T18:58:17.875Z,99702.13
2022-10-31T19:00:45.935Z,99700.50
2022-10-31T19:03:14.560Z,99690.25
2022-10-31T19:05:42.246Z,99692.31
2022-10-31T19:08:10.114Z,99684.78
2022-10-31T19:10:39.110Z,99678.34
2022-10-31T19:13:08.403Z,99688.22
2022-10-31T19:15:37.072Z,99687.16
2022-10-31T19:18:05.513Z,99677.22
2022-10-31T19:20:33.651Z,99688.69
2022-10-31T19:23:01.873Z,99675.72
2022-10-31T19:25:29.970Z,99677.72
2022-10-31T19:27:57.691Z,99686.19
2022-10-31T19:30:26.688Z,99682.88
2022-10-31T19:32:55.159Z,99683.44
2022-10-31T19:35:22.840Z,99691.31
2022-10-31T19:37:50.528Z,99698.56
2022-10-31T19:40:18.365Z,99701.41
2022-10-31T19:42:46.212Z,99702.41
2022-10-31T19:45:15.865Z,99694.50
2022-10-31T19:47:44.782Z,99694.41
2022-10-31T19:50:12.406Z,99693.44
2022-10-31T19:52:40.045Z,99706.22
2022-10-31T19:55:08.303Z,99694.31
2022-10-31T19:57:56.584Z,99697.06
2022-10-31T20:00:24.887Z,99695.69
2022-10-31T20:02:53.937Z,99698.94
2022-10-31T20:05:22.505Z,99702.16
2022-10-31T20:07:50.141Z,99699.06
2022-10-31T20:10:18.129Z,99693.34
2022-10-31T20:12:45.873Z,99691.84
2022-10-31T20:15:13.579Z,99693.19
2022-10-31T20:17:41.229Z,99689.28
2022-10-31T20:20:11.569Z,99688.75
2022-10-31T20:22:39.616Z,99688.28
2022-10-31T20:25:08.128Z,99682.44
2022-10-31T20:27:35.877Z,99684.09
2022-10-31T20:30:03.642Z,99687.69
2022-10-31T20:32:31.409Z,99682.72
2022-10-31T20:34:59.201Z,99680.81
2022-10-31T20:37:28.400Z,99680.91
2022-10-31T20:39:56.728Z,99680.53
2022-10-31T20:42:24.760Z,99678.44
2022-10-31T20:44:52.477Z,99670.75
2022-10-31T20:47:23.367Z,99677.63
2022-10-31T20:49:53.595Z,99665.72
2022-10-31T20:52:21.445Z,99670.38
2022-10-31T20:54:50.484Z,99665.25
2022-10-31T20:57:18.188Z,99664.53
2022-10-31T20:59:45.905Z,99668.53
2022-10-31T21:02:13.881Z,99666.63
2022-10-31T21:04:41.732Z,99672.91
2022-10-31T21:07:09.759Z,99677.50
2022-10-31T21:09:37.545Z,99681.72
2022-10-31T21:12:06.915Z,99676.75
2022-10-31T21:14:35.277Z,99677.47
2022-10-31T21:17:02.894Z,99675.16
2022-10-31T21:19:30.435Z,99667.56
2022-10-31T21:21:58.052Z,99674.00
2022-10-31T21:24:28.001Z,99669.84
2022-10-31T21:26:56.058Z,99674.66
2022-10-31T21:29:25.458Z,99678.16
2022-10-31T21:31:53.194Z,99674.69
2022-10-31T21:34:20.740Z,99664.91
2022-10-31T21:36:48.353Z,99661.25
2022-10-31T21:39:15.904Z,99662.38
2022-10-31T21:41:44.342Z,99661.25
2022-10-31T21:44:11.909Z,99659.97
2022-10-31T21:46:40.787Z,99660.59
2022-10-31T21:49:08.369Z,99665.44
2022-10-31T21:51:37.067Z,99665.00
2022-10-31T21:54:23.317Z,99660.91
2022-10-31T21:56:51.595Z,99666.44
2022-10-31T21:59:19.259Z,99655.34
2022-10-31T22:01:48.279Z,99667.44
2022-10-31T22:04:15.992Z,99653.50
2022-10-31T22:06:44.135Z,99656.53
2022-10-31T22:09:13.747Z,99660.53
2022-10-31T22:11:42.374Z,99657.53
2022-10-31T22:14:13.357Z,99646.81
2022-10-31T22:16:41.318Z,99643.78
2022-10-31T22:19:12.366Z,99636.03
2022-10-31T22:21:41.831Z,99638.31
2022-10-31T22:24:10.844Z,99629.09
2022-10-31T22:26:39.664Z,99631.38
2022-10-31T22:29:11.453Z,99633.38
2022-10-31T22:31:40.704Z,99626.22
2022-10-31T22:34:09.708Z,99634.28
2022-10-31T22:36:38.686Z,99623.91
2022-10-31T22:39:07.328Z,99626.00
2022-10-31T22:41:36.915Z,99625.72
2022-10-31T22:44:06.129Z,99622.63
2022-10-31T22:46:35.822Z,99626.66
2022-10-31T22:49:05.487Z,99630.53
2022-10-31T22:51:36.174Z,99624.50
2022-10-31T22:54:04.339Z,99626.53
2022-10-31T22:56:34.764Z,99623.28
2022-10-31T22:59:03.215Z,99619.59
2022-10-31T23:01:33.131Z,99628.75
2022-10-31T23:04:01.685Z,99625.72
2022-10-31T23:06:31.914Z,99620.97
2022-10-31T23:09:03.184Z,99619.56
2022-10-31T23:11:34.306Z,99627.53
2022-10-31T23:14:13.777Z,99616.03
2022-10-31T23:16:46.676Z,99619.81
2022-10-31T23:19:18.038Z,99622.03
2022-10-31T23:21:57.280Z,99619.53
2022-10-31T23:24:29.381Z,99624.44
2022-10-31T23:27:10.466Z,99622.50
2022-10-31T23:29:44.270Z,99617.72
2022-10-31T23:32:15.319Z,99624.69
2022-10-31T23:34:42.908Z,99620.38
2022-10-31T23:37:10.847Z,99617.84
2022-10-31T23:39:39.851Z,99620.31
2022-10-31T23:42:07.865Z,99631.94
2022-10-31T23:44:35.464Z,99627.38
2022-10-31T23:47:03.372Z,99632.28
2022-10-31T23:49:31.000Z,99625.06
2022-10-31T23:51:58.896Z,99622.06
2022-10-31T23:54:27.897Z,99620.59
2022-10-31T23:56:58.006Z,99623.72
2022-10-31T23:59:25.900Z,99619.41
